createdAt,value
2022-12-04T00:00:20.646Z,15.58
2022-12-04T00:02:49.424Z,15.53
2022-12-04T00:05:20.147Z,15.44
2022-12-04T00:07:49.595Z,15.48
2022-12-04T00:10:19.137Z,15.20
2022-12-04T00:12:47.227Z,15.29
2022-12-04T00:15:27.696Z,15.25
2022-12-04T00:17:59.465Z,15.23
2022-12-04T00:20:36.111Z,15.11
2022-12-04T00:23:32.590Z,15.08
2022-12-04T00:26:08.405Z,15.06
2022-12-04T00:28:44.578Z,15.11
2022-12-04T00:31:13.770Z,15.16
2022-12-04T00:33:45.834Z,15.04
2022-12-04T00:39:16.743Z,14.93
2022-12-04T00:41:43.942Z,14.89
2022-12-04T00:44:14.251Z,14.83
2022-12-04T00:46:43.039Z,14.85
2022-12-04T00:49:13.076Z,14.75
2022-12-04T00:51:41.089Z,14.83
2022-12-04T00:54:09.965Z,14.76
2022-12-04T00:57:08.785Z,14.80
2022-12-04T00:59:46.140Z,14.71
2022-12-04T01:02:14.672Z,14.75
2022-12-04T01:04:42.142Z,14.78
2022-12-04T01:07:17.631Z,14.61
2022-12-04T01:09:45.017Z,14.60
2022-12-04T01:12:16.159Z,14.64
2022-12-04T01:14:46.575Z,14.72
2022-12-04T01:17:15.488Z,14.84
2022-12-04T01:19:45.653Z,14.92
2022-12-04T01:22:12.727Z,14.99
2022-12-04T01:24:40.768Z,15.02
2022-12-04T01:27:10.978Z,15.11
2022-12-04T01:29:38.898Z,15.21
2022-12-04T01:32:06.100Z,15.17
2022-12-04T01:34:36.669Z,15.19
2022-12-04T01:37:04.442Z,14.85
2022-12-04T01:39:32.086Z,14.89
2022-12-04T01:42:00.719Z,14.88
2022-12-04T01:44:31.131Z,14.91
2022-12-04T01:47:10.779Z,14.90
2022-12-04T01:49:45.519Z,14.96
2022-12-04T01:52:21.188Z,14.96
2022-12-04T01:54:52.150Z,15.04
2022-12-04T01:57:21.061Z,15.13
2022-12-04T02:00:31.398Z,14.93
2022-12-04T02:02:59.073Z,15.03
2022-12-04T02:05:28.115Z,14.95
2022-12-04T02:08:01.829Z,15.06
2022-12-04T02:10:36.372Z,15.05
2022-12-04T02:13:16.012Z,15.07
2022-12-04T02:15:46.275Z,15.13
2022-12-04T02:18:19.998Z,15.12
2022-12-04T02:21:00.924Z,15.16
2022-12-04T02:23:42.895Z,15.20
2022-12-04T02:26:27.536Z,15.13
2022-12-04T02:29:06.373Z,15.14
2022-12-04T02:31:59.690Z,15.10
2022-12-04T02:34:28.774Z,15.00
2022-12-04T02:37:03.399Z,14.94
2022-12-04T02:39:42.106Z,14.85
2022-12-04T02:42:24.329Z,14.71
2022-12-04T02:44:59.582Z,14.68
2022-12-04T02:47:33.600Z,14.68
2022-12-04T02:50:05.656Z,14.73
2022-12-04T02:52:39.509Z,14.74
2022-12-04T02:55:30.165Z,14.61
2022-12-04T02:58:00.892Z,14.66
2022-12-04T03:00:32.407Z,14.73
2022-12-04T03:03:02.216Z,14.59
2022-12-04T03:05:34.948Z,14.69
2022-12-04T03:08:06.499Z,14.64
2022-12-04T03:10:36.907Z,14.55
2022-12-04T03:13:08.242Z,14.52
2022-12-04T03:15:41.582Z,14.59
2022-12-04T03:18:18.520Z,14.52
2022-12-04T03:20:51.057Z,14.47
2022-12-04T03:23:21.784Z,14.55
2022-12-04T03:25:57.539Z,14.43
2022-12-04T03:28:28.056Z,14.44
2022-12-04T03:31:00.794Z,14.51
2022-12-04T03:33:36.707Z,14.41
2022-12-04T03:36:08.566Z,14.21
2022-12-04T03:38:41.719Z,14.31
2022-12-04T03:41:08.967Z,14.40
2022-12-04T03:43:56.126Z,14.42
2022-12-04T03:46:48.542Z,14.45
2022-12-04T03:49:27.947Z,14.49
2022-12-04T03:52:04.928Z,14.43
2022-12-04T03:54:34.155Z,14.43
2022-12-04T03:57:03.632Z,14.54
2022-12-04T04:02:22.864Z,14.50
2022-12-04T04:04:56.132Z,14.42
2022-12-04T04:07:34.832Z,14.54
2022-12-04T04:10:12.483Z,14.50
2022-12-04T04:13:13.460Z,14.35
2022-12-04T04:16:12.283Z,14.47
2022-12-04T04:19:11.180Z,14.52
2022-12-04T04:22:02.176Z,14.52
2022-12-04T04:24:54.581Z,14.49
2022-12-04T04:27:29.770Z,14.61
2022-12-04T04:29:59.228Z,14.57
2022-12-04T04:32:30.181Z,14.65
2022-12-04T04:35:13.646Z,14.63
2022-12-04T04:38:01.026Z,14.68
2022-12-04T04:40:42.060Z,14.74
2022-12-04T04:43:19.140Z,14.73
2022-12-04T04:46:08.829Z,14.79
2022-12-04T04:48:44.544Z,14.64
2022-12-04T04:51:18.052Z,14.69
2022-12-04T04:53:50.543Z,14.68
2022-12-04T04:56:22.132Z,14.63
2022-12-04T04:58:49.295Z,14.59
2022-12-04T05:01:22.949Z,14.51
2022-12-04T05:03:50.290Z,14.14
2022-12-04T05:06:20.584Z,14.04
2022-12-04T05:08:57.241Z,14.23
2022-12-04T05:11:25.371Z,14.04
2022-12-04T05:13:53.269Z,14.05
2022-12-04T05:16:20.432Z,14.16
2022-12-04T05:19:06.357Z,14.06
2022-12-04T05:21:39.348Z,14.03
2022-12-04T05:24:06.831Z,14.00
2022-12-04T05:26:34.280Z,13.88
2022-12-04T05:29:01.599Z,14.03
2022-12-04T05:31:32.179Z,13.96
2022-12-04T05:34:04.854Z,14.00
2022-12-04T05:36:38.471Z,13.87
2022-12-04T05:39:11.893Z,13.91
2022-12-04T05:41:39.435Z,13.89
2022-12-04T05:44:08.091Z,14.00
2022-12-04T05:46:38.425Z,14.09
2022-12-04T05:49:05.651Z,14.03
2022-12-04T05:51:35.013Z,14.11
2022-12-04T05:54:05.365Z,13.91
2022-12-04T05:56:32.636Z,13.88
2022-12-04T05:59:02.348Z,13.77
2022-12-04T06:01:34.700Z,13.79
2022-12-04T06:04:06.387Z,13.85
2022-12-04T06:06:34.243Z,13.79
2022-12-04T06:09:01.715Z,13.81
2022-12-04T06:11:36.142Z,13.93
2022-12-04T06:14:11.125Z,13.94
2022-12-04T06:16:40.161Z,13.98
2022-12-04T06:19:10.298Z,14.00
2022-12-04T06:21:42.628Z,13.98
2022-12-04T06:24:13.264Z,13.98
2022-12-04T06:26:57.546Z,14.00
2022-12-04T06:29:28.349Z,13.94
2022-12-04T06:31:55.958Z,14.04
2022-12-04T06:34:23.244Z,14.00
2022-12-04T06:36:53.490Z,13.94
2022-12-04T06:39:20.666Z,13.88
2022-12-04T06:41:50.626Z,13.95
2022-12-04T06:44:20.778Z,13.92
2022-12-04T06:46:50.134Z,13.93
2022-12-04T06:49:21.447Z,13.80
2022-12-04T06:51:48.675Z,13.90
2022-12-04T06:54:15.640Z,13.91
2022-12-04T06:56:42.979Z,13.86
2022-12-04T06:59:10.855Z,13.66
2022-12-04T07:01:38.763Z,13.81
2022-12-04T07:04:06.014Z,13.80
2022-12-04T07:06:34.659Z,13.81
2022-12-04T07:09:03.111Z,13.83
2022-12-04T07:11:30.918Z,13.76
2022-12-04T07:13:58.166Z,13.71
2022-12-04T07:16:39.965Z,13.62
2022-12-04T07:19:08.619Z,13.67
2022-12-04T07:21:35.612Z,13.69
2022-12-04T07:24:05.261Z,13.63
2022-12-04T07:26:32.419Z,13.61
2022-12-04T07:28:59.986Z,13.52
2022-12-04T07:31:27.911Z,13.43
2022-12-04T07:33:59.063Z,13.46
2022-12-04T07:36:27.027Z,13.56
2022-12-04T07:38:57.469Z,13.63
2022-12-04T07:41:24.595Z,13.45
2022-12-04T07:43:51.851Z,13.68
2022-12-04T07:46:20.915Z,13.62
2022-12-04T07:48:47.930Z,13.66
2022-12-04T07:51:19.378Z,13.62
2022-12-04T07:53:46.310Z,13.70
2022-12-04T07:56:14.027Z,13.86
2022-12-04T07:58:42.128Z,13.94
2022-12-04T08:01:18.258Z,14.05
2022-12-04T08:03:49.840Z,14.13
2022-12-04T08:06:17.857Z,14.15
2022-12-04T08:08:45.392Z,14.16
2022-12-04T08:11:18.331Z,14.18
2022-12-04T08:13:46.071Z,14.04
2022-12-04T08:16:13.455Z,14.10
2022-12-04T08:18:47.153Z,14.06
2022-12-04T08:21:15.869Z,14.07
2022-12-04T08:23:50.078Z,14.14
2022-12-04T08:26:26.394Z,14.10
2022-12-04T08:28:55.179Z,14.08
2022-12-04T08:31:26.374Z,13.93
2022-12-04T08:33:54.839Z,14.06
2022-12-04T08:36:22.693Z,14.03
2022-12-04T08:38:54.840Z,14.06
2022-12-04T08:41:24.267Z,14.13
2022-12-04T08:43:55.058Z,14.12
2022-12-04T08:46:26.022Z,14.14
2022-12-04T08:49:06.984Z,14.18
2022-12-04T08:51:38.024Z,14.28
2022-12-04T08:54:12.844Z,14.26
2022-12-04T08:56:41.088Z,14.31
2022-12-04T08:59:08.441Z,14.41
2022-12-04T09:01:36.222Z,14.52
2022-12-04T09:04:03.281Z,14.54
2022-12-04T09:06:30.415Z,14.60
2022-12-04T09:09:01.737Z,14.59
2022-12-04T09:11:29.933Z,14.58
2022-12-04T09:13:58.962Z,14.62
2022-12-04T09:16:27.074Z,14.73
2022-12-04T09:18:57.832Z,14.73
2022-12-04T09:21:25.680Z,14.82
2022-12-04T09:23:52.981Z,14.86
2022-12-04T09:26:24.749Z,14.87
2022-12-04T09:28:56.166Z,15.00
2022-12-04T09:31:26.376Z,15.08
2022-12-04T09:33:54.399Z,15.22
2022-12-04T09:36:27.834Z,15.18
2022-12-04T09:39:04.013Z,15.20
2022-12-04T09:41:37.241Z,15.25
2022-12-04T09:44:07.856Z,15.14
2022-12-04T09:46:43.407Z,15.21
2022-12-04T09:49:17.263Z,15.24
2022-12-04T09:52:01.053Z,15.26
2022-12-04T09:54:38.135Z,15.37
2022-12-04T09:57:16.969Z,15.42
2022-12-04T09:59:45.413Z,15.56
2022-12-04T10:02:12.707Z,15.63
2022-12-04T10:04:43.021Z,15.52
2022-12-04T10:07:29.129Z,15.66
2022-12-04T10:09:59.687Z,15.72
2022-12-04T10:12:47.066Z,15.86
2022-12-04T10:15:21.944Z,15.83
2022-12-04T10:17:48.950Z,15.84
2022-12-04T10:20:19.090Z,15.92
2022-12-04T10:22:50.645Z,15.91
2022-12-04T10:25:29.324Z,16.07
2022-12-04T10:28:05.204Z,16.26
2022-12-04T10:30:43.125Z,16.27
2022-12-04T10:33:11.180Z,16.28
2022-12-04T10:35:42.957Z,16.25
2022-12-04T10:38:21.209Z,16.34
2022-12-04T10:40:55.152Z,16.35
2022-12-04T10:43:27.726Z,16.37
2022-12-04T10:46:04.171Z,16.35
2022-12-04T10:48:39.096Z,16.43
2022-12-04T10:51:06.431Z,16.51
2022-12-04T10:53:40.365Z,16.59
2022-12-04T10:56:18.141Z,16.62
2022-12-04T10:59:05.330Z,16.60
2022-12-04T11:01:33.835Z,16.58
2022-12-04T11:04:09.420Z,16.43
2022-12-04T11:06:41.315Z,16.47
2022-12-04T11:09:18.867Z,16.43
2022-12-04T11:11:45.917Z,16.32
2022-12-04T11:14:15.802Z,16.44
2022-12-04T11:16:48.703Z,16.46
2022-12-04T11:19:26.026Z,16.36
2022-12-04T11:21:57.669Z,16.18
2022-12-04T11:24:34.021Z,16.45
2022-12-04T11:27:06.376Z,16.36
2022-12-04T11:29:38.624Z,16.47
2022-12-04T11:32:08.310Z,16.46
2022-12-04T11:34:38.206Z,16.36
2022-12-04T11:37:06.073Z,16.55
2022-12-04T11:39:38.849Z,16.45
2022-12-04T11:42:07.366Z,16.35
2022-12-04T11:44:36.551Z,16.47
2022-12-04T11:47:05.951Z,16.39
2022-12-04T11:49:33.440Z,16.42
2022-12-04T11:52:19.237Z,16.29
2022-12-04T11:54:48.532Z,16.19
2022-12-04T11:57:15.328Z,16.47
2022-12-04T12:00:04.354Z,16.24
2022-12-04T12:03:07.669Z,16.35
2022-12-04T12:05:49.674Z,16.18
2022-12-04T12:08:32.941Z,16.40
2022-12-04T12:11:00.012Z,16.28
2022-12-04T12:13:32.912Z,16.36
2022-12-04T12:16:18.875Z,16.35
2022-12-04T12:18:58.460Z,16.22
2022-12-04T12:21:29.976Z,16.35
2022-12-04T12:24:08.839Z,16.25
2022-12-04T12:26:55.524Z,16.26
2022-12-04T12:29:22.408Z,16.44
2022-12-04T12:31:49.348Z,16.23
2022-12-04T12:34:27.923Z,16.40
2022-12-04T12:37:05.488Z,16.40
2022-12-04T12:39:40.830Z,16.55
2022-12-04T12:42:15.147Z,16.78
2022-12-04T12:44:51.410Z,17.46
2022-12-04T12:47:21.461Z,18.52
2022-12-04T12:50:08.879Z,19.27
2022-12-04T12:52:46.141Z,20.43
2022-12-04T12:55:15.892Z,21.63
2022-12-04T12:57:44.536Z,22.26
2022-12-04T13:00:19.155Z,22.83
2022-12-04T13:02:55.153Z,23.07
2022-12-04T13:05:28.040Z,22.20
2022-12-04T13:08:03.915Z,22.40
2022-12-04T13:10:37.301Z,22.60
2022-12-04T13:13:08.024Z,23.19
2022-12-04T13:15:55.364Z,23.31
2022-12-04T13:18:34.849Z,23.18
2022-12-04T13:21:03.592Z,23.37
2022-12-04T13:23:56.134Z,23.35
2022-12-04T13:26:39.458Z,22.85
2022-12-04T13:29:18.843Z,22.11
2022-12-04T13:32:04.130Z,22.01
2022-12-04T13:34:53.733Z,21.68
2022-12-04T13:37:36.133Z,21.12
2022-12-04T13:40:09.444Z,20.94
2022-12-04T13:42:36.650Z,20.70
2022-12-04T13:45:08.740Z,20.51
2022-12-04T13:47:36.344Z,19.81
2022-12-04T13:50:07.939Z,19.40
2022-12-04T13:52:41.213Z,19.25
2022-12-04T13:55:23.586Z,18.90
2022-12-04T13:58:02.462Z,18.98
2022-12-04T14:00:36.108Z,19.26
2022-12-04T14:03:05.599Z,19.41
2022-12-04T14:05:42.916Z,19.51
2022-12-04T14:08:19.456Z,19.56
2022-12-04T14:11:09.133Z,19.51
2022-12-04T14:13:40.850Z,19.39
2022-12-04T14:16:19.672Z,19.39
2022-12-04T14:18:49.342Z,19.46
2022-12-04T14:21:18.796Z,19.50
2022-12-04T14:23:46.110Z,19.56
2022-12-04T14:26:49.305Z,20.09
2022-12-04T14:29:20.952Z,19.78
2022-12-04T14:31:48.439Z,19.93
2022-12-04T14:34:24.712Z,19.29
2022-12-04T14:36:55.199Z,19.16
2022-12-04T14:39:28.149Z,19.30
2022-12-04T14:42:05.563Z,19.60
2022-12-04T14:44:33.167Z,19.12
2022-12-04T14:47:13.622Z,19.83
2022-12-04T14:49:53.899Z,19.75
2022-12-04T14:52:56.320Z,19.93
2022-12-04T14:55:53.108Z,20.33
2022-12-04T14:58:41.835Z,20.47
2022-12-04T15:01:29.015Z,20.85
2022-12-04T15:03:59.462Z,21.00
2022-12-04T15:06:28.615Z,21.01
2022-12-04T15:09:18.888Z,20.78
2022-12-04T15:12:14.167Z,20.38
2022-12-04T15:14:49.284Z,20.00
2022-12-04T15:17:17.204Z,19.89
2022-12-04T15:19:44.637Z,20.05
2022-12-04T15:22:30.851Z,19.77
2022-12-04T15:24:58.231Z,19.78
2022-12-04T15:27:31.964Z,19.59
2022-12-04T15:30:02.011Z,19.61
2022-12-04T15:32:31.146Z,19.49
2022-12-04T15:35:03.096Z,19.27
2022-12-04T15:37:33.481Z,19.24
2022-12-04T15:40:05.349Z,19.16
2022-12-04T15:42:34.118Z,19.13
2022-12-04T15:45:23.302Z,18.97
2022-12-04T15:47:52.110Z,18.85
2022-12-04T15:50:19.077Z,18.51
2022-12-04T15:52:53.088Z,18.31
2022-12-04T15:55:22.542Z,18.44
2022-12-04T15:58:12.904Z,18.23
2022-12-04T16:00:43.785Z,18.22
2022-12-04T16:03:46.477Z,18.32
2022-12-04T16:06:31.689Z,18.03
2022-12-04T16:08:59.981Z,18.20
2022-12-04T16:11:33.357Z,18.17
2022-12-04T16:14:12.540Z,18.09
2022-12-04T16:16:46.883Z,17.97
2022-12-04T16:19:15.951Z,17.89
2022-12-04T16:21:43.847Z,17.74
2022-12-04T16:24:12.048Z,17.74
2022-12-04T16:26:39.164Z,17.74
2022-12-04T16:29:06.442Z,17.25
2022-12-04T16:31:33.627Z,17.27
2022-12-04T16:34:04.026Z,17.18
2022-12-04T16:36:31.199Z,17.07
2022-12-04T16:38:58.322Z,17.28
2022-12-04T16:41:25.557Z,17.24
2022-12-04T16:43:55.273Z,17.24
2022-12-04T16:46:23.537Z,17.24
2022-12-04T16:48:51.059Z,17.17
2022-12-04T16:51:23.787Z,17.00
2022-12-04T16:53:52.243Z,17.09
2022-12-04T16:56:20.371Z,17.02
2022-12-04T16:58:47.594Z,16.68
2022-12-04T17:01:24.015Z,16.77
2022-12-04T17:03:51.707Z,16.76
2022-12-04T17:06:19.410Z,16.72
2022-12-04T17:08:46.722Z,16.40
2022-12-04T17:11:15.612Z,16.50
2022-12-04T17:13:43.050Z,16.61
2022-12-04T17:16:14.994Z,16.39
2022-12-04T17:18:46.853Z,16.53
2022-12-04T17:21:15.151Z,16.55
2022-12-04T17:23:54.501Z,16.57
2022-12-04T17:26:22.508Z,16.57
2022-12-04T17:28:53.651Z,16.57
2022-12-04T17:31:39.833Z,16.63
2022-12-04T17:34:23.004Z,16.59
2022-12-04T17:36:53.500Z,16.60
2022-12-04T17:39:26.266Z,16.56
2022-12-04T17:41:53.913Z,16.58
2022-12-04T17:44:21.979Z,16.35
2022-12-04T17:46:52.158Z,16.53
2022-12-04T17:49:19.832Z,16.53
2022-12-04T17:51:47.131Z,16.46
2022-12-04T17:54:19.929Z,16.54
2022-12-04T17:56:49.599Z,16.37
2022-12-04T17:59:22.451Z,16.37
2022-12-04T18:01:51.191Z,16.38
2022-12-04T18:04:23.012Z,16.39
2022-12-04T18:06:50.257Z,16.16
2022-12-04T18:09:18.499Z,16.27
2022-12-04T18:11:53.099Z,16.39
2022-12-04T18:14:22.539Z,16.31
2022-12-04T18:16:53.902Z,16.39
2022-12-04T18:19:25.651Z,16.37
2022-12-04T18:22:12.014Z,16.28
2022-12-04T18:24:54.464Z,16.08
2022-12-04T18:27:29.650Z,16.01
2022-12-04T18:30:04.868Z,15.94
2022-12-04T18:32:45.408Z,16.03
2022-12-04T18:35:18.761Z,16.01
2022-12-04T18:37:51.367Z,16.07
2022-12-04T18:40:28.376Z,16.00
2022-12-04T18:43:03.171Z,16.03
2022-12-04T18:45:35.001Z,16.01
2022-12-04T18:48:12.381Z,15.71
2022-12-04T18:50:56.694Z,15.81
2022-12-04T18:53:35.416Z,15.75
2022-12-04T18:56:10.376Z,15.85
2022-12-04T18:58:44.206Z,15.90
2022-12-04T19:01:17.372Z,15.76
2022-12-04T19:03:52.449Z,15.73
2022-12-04T19:06:21.963Z,15.68
2022-12-04T19:08:49.308Z,15.68
2022-12-04T19:11:23.420Z,15.58
2022-12-04T19:13:56.407Z,15.62
2022-12-04T19:16:39.589Z,15.52
2022-12-04T19:19:17.508Z,15.44
2022-12-04T19:21:51.411Z,15.44
2022-12-04T19:24:26.144Z,15.54
2022-12-04T19:29:50.162Z,15.06
2022-12-04T19:32:23.013Z,14.85
2022-12-04T19:34:56.182Z,15.04
2022-12-04T19:37:34.109Z,15.00
2022-12-04T19:40:15.259Z,14.94
2022-12-04T19:42:43.606Z,14.81
2022-12-04T19:48:01.759Z,14.78
2022-12-04T19:51:14.039Z,14.80
2022-12-04T19:53:47.412Z,14.73
2022-12-04T19:56:25.609Z,14.77
2022-12-04T19:59:01.318Z,14.73
2022-12-04T20:01:33.422Z,14.69
2022-12-04T20:04:04.053Z,14.64
2022-12-04T20:06:40.457Z,14.68
2022-12-04T20:09:16.147Z,14.72
2022-12-04T20:12:02.472Z,14.81
2022-12-04T20:14:37.128Z,14.87
2022-12-04T20:17:10.463Z,14.94
2022-12-04T20:19:38.002Z,14.99
2022-12-04T20:22:11.439Z,15.04
2022-12-04T20:24:42.083Z,15.05
2022-12-04T20:27:11.988Z,14.88
2022-12-04T20:29:39.963Z,14.84
2022-12-04T20:32:12.313Z,14.90
2022-12-04T20:34:43.891Z,14.82
2022-12-04T20:37:14.523Z,14.96
2022-12-04T20:39:48.122Z,14.90
2022-12-04T20:42:22.926Z,14.98
2022-12-04T20:45:08.135Z,14.87
2022-12-04T20:47:39.608Z,14.88
2022-12-04T20:50:13.575Z,14.88
2022-12-04T20:53:07.804Z,14.87
2022-12-04T20:55:48.451Z,14.87
2022-12-04T21:01:34.740Z,14.83
2022-12-04T21:07:15.920Z,14.69
2022-12-04T21:09:53.061Z,14.68
2022-12-04T21:12:43.319Z,14.64
2022-12-04T21:15:46.861Z,14.66
2022-12-04T21:18:26.322Z,14.60
2022-12-04T21:21:03.362Z,14.62
2022-12-04T21:23:30.417Z,14.55
2022-12-04T21:26:03.621Z,14.61
2022-12-04T21:28:31.686Z,14.59
2022-12-04T21:31:06.248Z,14.62
2022-12-04T21:33:34.909Z,14.56
2022-12-04T21:36:21.594Z,14.53
2022-12-04T21:38:49.395Z,14.47
2022-12-04T21:41:37.658Z,14.56
2022-12-04T21:44:05.700Z,14.41
2022-12-04T21:46:38.219Z,14.48
2022-12-04T21:49:08.422Z,14.41
2022-12-04T21:52:00.784Z,14.38
2022-12-04T21:54:31.995Z,14.27
2022-12-04T21:57:00.487Z,14.24
2022-12-04T21:59:31.106Z,14.14
2022-12-04T22:01:58.305Z,13.94
2022-12-04T22:04:30.347Z,13.95
2022-12-04T22:06:59.904Z,13.80
2022-12-04T22:09:27.396Z,13.96
2022-12-04T22:11:54.916Z,14.06
2022-12-04T22:14:25.453Z,14.11
2022-12-04T22:16:56.826Z,14.07
2022-12-04T22:19:24.292Z,13.90
2022-12-04T22:21:51.582Z,14.07
2022-12-04T22:24:21.420Z,14.03
2022-12-04T22:26:51.797Z,14.05
2022-12-04T22:29:49.815Z,14.06
2022-12-04T22:32:06.748Z,14.04
2022-12-04T22:34:33.987Z,13.98
2022-12-04T22:37:01.257Z,14.03
2022-12-04T22:39:28.771Z,13.97
2022-12-04T22:41:56.386Z,13.95
2022-12-04T22:44:26.684Z,13.95
2022-12-04T22:46:56.974Z,13.94
2022-12-04T22:49:26.843Z,13.87
2022-12-04T22:51:54.492Z,13.97
2022-12-04T22:54:24.776Z,13.98
2022-12-04T22:56:52.227Z,13.92
2022-12-04T22:59:19.421Z,13.97
2022-12-04T23:01:46.641Z,13.96
2022-12-04T23:04:13.875Z,14.03
2022-12-04T23:06:42.129Z,14.08
2022-12-04T23:09:14.251Z,14.10
2022-12-04T23:11:42.086Z,14.04
2022-12-04T23:14:14.633Z,14.09
2022-12-04T23:16:42.048Z,14.00
2022-12-04T23:19:11.764Z,14.14
2022-12-04T23:21:40.423Z,14.15
2022-12-04T23:24:07.845Z,14.12
2022-12-04T23:26:36.805Z,14.15
2022-12-04T23:29:29.741Z,14.17
2022-12-04T23:31:54.810Z,14.19
2022-12-04T23:34:22.120Z,14.17
2022-12-04T23:36:49.567Z,14.16
2022-12-04T23:39:16.700Z,14.11
2022-12-04T23:41:44.975Z,14.11
2022-12-04T23:44:12.202Z,14.11
2022-12-04T23:46:39.632Z,14.11
2022-12-04T23:49:07.035Z,14.08
2022-12-04T23:51:34.205Z,14.01
2022-12-04T23:54:01.518Z,14.07
2022-12-04T23:56:28.564Z,14.04
2022-12-04T23:58:57.165Z,14.01
